createdAt,value
2018-08-04T00:01:39.002Z,24.80
2018-08-04T00:04:06.576Z,24.70
2018-08-04T00:06:35.310Z,24.70
2018-08-04T00:09:08.511Z,24.70
2018-08-04T00:11:36.127Z,24.60
2018-08-04T00:14:03.720Z,24.60
2018-08-04T00:16:36.582Z,24.60
2018-08-04T00:19:04.150Z,24.60
2018-08-04T00:21:31.711Z,24.60
2018-08-04T00:23:59.425Z,24.50
2018-08-04T00:26:40.930Z,24.40
2018-08-04T00:29:08.515Z,24.40
2018-08-04T00:31:36.138Z,24.40
2018-08-04T00:34:03.711Z,24.40
2018-08-04T00:36:31.307Z,24.50
2018-08-04T00:38:58.925Z,24.50
2018-08-04T00:41:26.499Z,24.30
2018-08-04T00:43:54.089Z,24.30
2018-08-04T00:46:21.681Z,24.30
2018-08-04T00:48:49.257Z,24.30
2018-08-04T00:51:16.849Z,24.20
2018-08-04T00:53:44.465Z,24.10
2018-08-04T00:56:27.892Z,24.00
2018-08-04T00:58:55.503Z,24.10
2018-08-04T01:01:23.057Z,24.10
2018-08-04T01:03:50.657Z,24.10
2018-08-04T01:06:18.257Z,24.00
2018-08-04T01:08:45.817Z,23.90
2018-08-04T01:11:13.421Z,23.80
2018-08-04T01:13:41.138Z,23.90
2018-08-04T01:16:08.784Z,23.90
2018-08-04T01:18:36.434Z,23.90
2018-08-04T01:21:03.989Z,23.80
2018-08-04T01:23:31.641Z,23.70
2018-08-04T01:25:59.292Z,23.70
2018-08-04T01:28:26.894Z,23.70
2018-08-04T01:30:54.741Z,23.60
2018-08-04T01:33:22.312Z,23.60
2018-08-04T01:35:49.913Z,23.60
2018-08-04T01:38:17.495Z,23.60
2018-08-04T01:40:45.114Z,23.50
2018-08-04T01:43:12.760Z,23.50
2018-08-04T01:45:40.300Z,23.50
2018-08-04T01:48:07.880Z,23.50
2018-08-04T01:50:35.521Z,23.40
2018-08-04T01:55:52.150Z,23.40
2018-08-04T01:58:19.761Z,23.30
2018-08-04T02:00:47.464Z,23.20
2018-08-04T02:03:15.053Z,23.20
2018-08-04T02:05:42.636Z,23.20
2018-08-04T02:08:10.189Z,23.10
2018-08-04T02:10:37.816Z,23.10
2018-08-04T02:13:10.230Z,23.10
2018-08-04T02:15:37.830Z,23.10
2018-08-04T02:18:05.418Z,23.00
2018-08-04T02:20:33.180Z,23.00
2018-08-04T02:23:00.777Z,22.90
2018-08-04T02:25:28.369Z,22.80
2018-08-04T02:27:56.022Z,22.80
2018-08-04T02:30:23.615Z,22.70
2018-08-04T02:32:51.257Z,22.70
2018-08-04T02:35:18.866Z,22.70
2018-08-04T02:37:46.396Z,22.80
2018-08-04T02:40:13.973Z,22.70
2018-08-04T02:42:41.554Z,22.70
2018-08-04T02:45:09.507Z,22.80
2018-08-04T02:47:37.152Z,22.60
2018-08-04T02:50:05.037Z,22.70
2018-08-04T02:52:32.751Z,22.60
2018-08-04T02:55:00.357Z,22.60
2018-08-04T02:57:27.989Z,22.60
2018-08-04T02:59:55.653Z,22.60
2018-08-04T03:02:23.220Z,22.50
2018-08-04T03:04:50.806Z,22.50
2018-08-04T03:07:18.325Z,22.40
2018-08-04T03:09:45.908Z,22.10
2018-08-04T03:12:13.466Z,22.10
2018-08-04T03:14:41.098Z,22.20
2018-08-04T03:17:08.784Z,22.30
2018-08-04T03:19:36.367Z,22.30
2018-08-04T03:22:04.010Z,22.40
2018-08-04T03:24:31.647Z,22.30
2018-08-04T03:26:59.197Z,22.30
2018-08-04T03:29:26.763Z,22.20
2018-08-04T03:31:55.430Z,22.20
2018-08-04T03:34:23.059Z,22.10
2018-08-04T03:36:50.638Z,22.10
2018-08-04T03:39:18.222Z,22.10
2018-08-04T03:41:45.874Z,22.10
2018-08-04T03:44:13.460Z,22.10
2018-08-04T03:46:41.055Z,22.10
2018-08-04T03:49:08.656Z,22.10
2018-08-04T03:51:36.250Z,22.00
2018-08-04T03:54:03.856Z,21.90
2018-08-04T03:56:31.453Z,21.80
2018-08-04T03:58:59.047Z,21.80
2018-08-04T04:01:26.577Z,21.80
2018-08-04T04:03:54.266Z,21.80
2018-08-04T04:06:21.876Z,21.80
2018-08-04T04:08:49.592Z,21.80
2018-08-04T04:11:17.231Z,21.80
2018-08-04T04:13:44.921Z,21.80
2018-08-04T04:16:12.624Z,21.90
2018-08-04T04:18:40.301Z,21.80
2018-08-04T04:21:07.901Z,21.80
2018-08-04T04:23:35.553Z,21.80
2018-08-04T04:26:03.241Z,21.80
2018-08-04T04:28:30.876Z,21.80
2018-08-04T04:30:58.481Z,21.80
2018-08-04T04:33:26.099Z,21.80
2018-08-04T04:35:53.813Z,21.90
2018-08-04T04:38:21.370Z,21.90
2018-08-04T04:40:48.988Z,21.90
2018-08-04T04:43:16.582Z,21.90
2018-08-04T04:45:44.193Z,22.00
2018-08-04T04:48:11.817Z,22.00
2018-08-04T04:50:39.434Z,22.10
2018-08-04T04:53:07.179Z,22.20
2018-08-04T04:55:34.769Z,22.20
2018-08-04T04:58:02.397Z,22.30
2018-08-04T05:00:29.972Z,22.40
2018-08-04T05:02:57.559Z,22.40
2018-08-04T05:05:25.215Z,22.50
2018-08-04T05:07:52.832Z,22.60
2018-08-04T05:10:20.432Z,22.70
2018-08-04T05:12:59.369Z,22.70
2018-08-04T05:15:26.991Z,22.70
2018-08-04T05:17:54.639Z,22.80
2018-08-04T05:20:22.261Z,22.70
2018-08-04T05:22:49.892Z,22.60
2018-08-04T05:25:17.476Z,22.70
2018-08-04T05:27:45.170Z,22.70
2018-08-04T05:30:12.742Z,22.80
2018-08-04T05:32:40.346Z,22.80
2018-08-04T05:35:07.962Z,22.80
2018-08-04T05:37:35.615Z,22.90
2018-08-04T05:40:03.209Z,23.00
2018-08-04T05:42:30.772Z,23.20
2018-08-04T05:44:58.348Z,23.50
2018-08-04T05:47:26.014Z,23.50
2018-08-04T05:49:53.609Z,23.50
2018-08-04T05:52:21.267Z,23.70
2018-08-04T05:54:48.838Z,23.80
2018-08-04T05:57:16.449Z,23.90
2018-08-04T05:59:44.065Z,23.90
2018-08-04T06:02:11.769Z,24.00
2018-08-04T06:04:39.280Z,24.10
2018-08-04T06:07:06.851Z,24.20
2018-08-04T06:09:34.545Z,24.30
2018-08-04T06:12:02.183Z,24.40
2018-08-04T06:14:31.859Z,24.40
2018-08-04T06:16:59.502Z,24.50
2018-08-04T06:19:27.061Z,24.70
2018-08-04T06:21:54.676Z,24.70
2018-08-04T06:24:22.262Z,24.90
2018-08-04T06:26:49.893Z,25.10
2018-08-04T06:29:17.614Z,25.20
2018-08-04T06:31:45.194Z,25.40
2018-08-04T06:34:12.779Z,25.70
2018-08-04T06:39:43.312Z,25.90
2018-08-04T06:42:10.885Z,26.10
2018-08-04T06:44:38.556Z,26.30
2018-08-04T06:47:06.248Z,26.50
2018-08-04T06:49:33.872Z,26.70
2018-08-04T06:52:01.796Z,26.80
2018-08-04T06:54:29.383Z,27.10
2018-08-04T06:56:57.048Z,27.20
2018-08-04T06:59:24.631Z,27.20
2018-08-04T07:01:52.219Z,27.30
2018-08-04T07:04:25.600Z,27.30
2018-08-04T07:06:56.527Z,27.40
2018-08-04T07:09:24.037Z,27.50
2018-08-04T07:11:57.042Z,27.70
2018-08-04T07:14:24.624Z,27.80
2018-08-04T07:16:52.284Z,28.10
2018-08-04T07:19:19.873Z,28.50
2018-08-04T07:21:47.434Z,28.80
2018-08-04T07:24:14.983Z,29.10
2018-08-04T07:26:42.646Z,29.30
2018-08-04T07:29:10.250Z,29.40
2018-08-04T07:31:37.834Z,29.60
2018-08-04T07:34:05.478Z,29.70
2018-08-04T07:36:33.126Z,29.50
2018-08-04T07:39:00.754Z,29.40
2018-08-04T07:41:29.390Z,29.60
2018-08-04T07:43:56.916Z,29.50
2018-08-04T07:46:24.645Z,29.50
2018-08-04T07:48:52.821Z,29.60
2018-08-04T07:51:20.482Z,29.90
2018-08-04T07:53:48.099Z,30.20
2018-08-04T07:56:15.840Z,30.30
2018-08-04T07:58:43.411Z,30.50
2018-08-04T08:01:11.018Z,30.50
2018-08-04T08:03:38.631Z,30.60
2018-08-04T08:06:10.301Z,30.70
2018-08-04T08:08:42.218Z,30.90
2018-08-04T08:11:10.055Z,31.00
2018-08-04T08:13:37.714Z,31.20
2018-08-04T08:16:05.648Z,30.90
2018-08-04T08:18:34.445Z,30.30
2018-08-04T08:21:02.145Z,30.20
2018-08-04T08:23:30.020Z,30.10
2018-08-04T08:26:03.359Z,30.30
2018-08-04T08:28:31.097Z,30.60
2018-08-04T08:30:58.886Z,30.70
2018-08-04T08:33:26.583Z,30.50
2018-08-04T08:35:54.385Z,30.80
2018-08-04T08:38:28.394Z,30.90
2018-08-04T08:40:56.244Z,31.00
2018-08-04T08:43:24.144Z,31.30
2018-08-04T08:45:51.964Z,31.40
2018-08-04T08:48:19.967Z,31.70
2018-08-04T08:50:47.635Z,32.10
2018-08-04T08:53:15.557Z,31.90
2018-08-04T08:55:43.332Z,31.90
2018-08-04T08:58:11.077Z,31.90
2018-08-04T09:00:39.538Z,32.30
2018-08-04T09:03:17.200Z,32.70
2018-08-04T09:05:44.924Z,32.50
2018-08-04T09:08:42.373Z,32.40
2018-08-04T09:11:15.792Z,32.50
2018-08-04T09:19:21.531Z,32.90
2018-08-04T09:21:51.012Z,33.40
2018-08-04T09:24:18.903Z,33.50
2018-08-04T09:26:46.741Z,33.10
2018-08-04T09:29:16.244Z,33.30
2018-08-04T09:31:49.115Z,33.50
2018-08-04T09:34:17.360Z,33.60
2018-08-04T09:36:51.299Z,33.70
2018-08-04T09:39:19.997Z,33.80
2018-08-04T09:41:47.673Z,33.80
2018-08-04T09:44:15.331Z,34.00
2018-08-04T09:46:43.578Z,34.20
2018-08-04T09:52:15.908Z,34.40
2018-08-04T09:54:46.307Z,34.60
2018-08-04T09:57:16.301Z,34.80
2018-08-04T09:59:44.310Z,34.80
2018-08-04T10:02:13.229Z,34.20
2018-08-04T10:04:41.337Z,34.10
2018-08-04T10:07:09.508Z,34.20
2018-08-04T10:09:42.909Z,34.50
2018-08-04T10:12:10.745Z,34.40
2018-08-04T10:14:38.697Z,34.70
2018-08-04T10:17:06.998Z,34.40
2018-08-04T10:19:35.413Z,34.80
2018-08-04T10:22:03.916Z,35.20
2018-08-04T10:24:32.373Z,35.40
2018-08-04T10:27:00.179Z,35.70
2018-08-04T10:29:28.132Z,36.00
2018-08-04T10:31:56.309Z,35.90
2018-08-04T10:34:24.304Z,35.60
2018-08-04T10:36:52.215Z,35.10
2018-08-04T10:39:21.470Z,34.70
2018-08-04T10:41:51.538Z,34.40
2018-08-04T10:44:31.427Z,34.10
2018-08-04T10:47:00.287Z,34.10
2018-08-04T10:49:28.383Z,34.20
2018-08-04T10:51:58.149Z,34.10
2018-08-04T10:54:26.018Z,34.00
2018-08-04T10:56:53.951Z,33.90
2018-08-04T10:59:33.631Z,33.80
2018-08-04T11:02:05.069Z,33.90
2018-08-04T11:04:34.679Z,34.10
2018-08-04T11:07:02.524Z,34.40
2018-08-04T11:09:30.451Z,34.40
2018-08-04T11:12:02.374Z,34.40
2018-08-04T11:14:32.247Z,34.30
2018-08-04T11:17:03.017Z,34.50
2018-08-04T11:19:30.676Z,34.70
2018-08-04T11:21:59.788Z,34.90
2018-08-04T11:24:27.554Z,35.10
2018-08-04T11:26:55.123Z,35.30
2018-08-04T11:29:24.881Z,35.40
2018-08-04T11:31:54.628Z,35.40
2018-08-04T11:34:23.094Z,35.20
2018-08-04T11:36:51.541Z,35.00
2018-08-04T11:39:19.898Z,35.00
2018-08-04T11:41:47.728Z,35.00
2018-08-04T11:44:16.492Z,35.00
2018-08-04T11:46:44.654Z,34.90
2018-08-04T11:49:12.357Z,34.90
2018-08-04T11:51:40.335Z,35.10
2018-08-04T11:54:08.749Z,35.50
2018-08-04T11:56:36.534Z,35.70
2018-08-04T11:59:04.320Z,35.80
2018-08-04T12:01:31.998Z,36.00
2018-08-04T12:03:59.663Z,36.20
2018-08-04T12:06:28.139Z,36.30
2018-08-04T12:08:56.691Z,35.90
2018-08-04T12:11:25.344Z,35.80
2018-08-04T12:13:53.000Z,35.90
2018-08-04T12:16:20.748Z,35.80
2018-08-04T12:18:54.515Z,35.60
2018-08-04T12:21:22.235Z,35.60
2018-08-04T12:23:49.887Z,35.20
2018-08-04T12:26:17.519Z,35.20
2018-08-04T12:28:47.252Z,35.20
2018-08-04T12:31:15.489Z,35.10
2018-08-04T12:33:43.353Z,35.20
2018-08-04T12:36:13.571Z,35.20
2018-08-04T12:38:41.864Z,35.10
2018-08-04T12:41:09.595Z,35.10
2018-08-04T12:43:37.732Z,34.90
2018-08-04T12:46:05.977Z,35.00
2018-08-04T12:48:45.949Z,35.10
2018-08-04T12:51:14.237Z,35.20
2018-08-04T12:53:42.626Z,35.30
2018-08-04T12:56:11.290Z,35.50
2018-08-04T12:58:38.944Z,35.50
2018-08-04T13:01:13.817Z,35.70
2018-08-04T13:03:42.884Z,35.90
2018-08-04T13:06:10.860Z,35.80
2018-08-04T13:08:38.679Z,36.00
2018-08-04T13:13:54.986Z,36.10
2018-08-04T13:16:28.276Z,35.90
2018-08-04T13:18:57.281Z,35.90
2018-08-04T13:21:25.762Z,36.00
2018-08-04T13:23:54.438Z,36.10
2018-08-04T13:26:22.151Z,36.30
2018-08-04T13:34:52.170Z,36.30
2018-08-04T13:37:28.894Z,36.30
2018-08-04T13:40:11.010Z,36.20
2018-08-04T13:42:38.641Z,36.30
2018-08-04T13:45:06.702Z,36.40
2018-08-04T13:47:34.354Z,36.40
2018-08-04T13:50:01.971Z,36.30
2018-08-04T13:52:29.569Z,36.40
2018-08-04T13:54:57.199Z,36.30
2018-08-04T13:57:24.784Z,36.20
2018-08-04T13:59:52.407Z,36.20
2018-08-04T14:05:06.471Z,36.40
2018-08-04T14:07:35.089Z,36.30
2018-08-04T14:10:02.814Z,36.10
2018-08-04T14:15:17.938Z,35.90
2018-08-04T14:17:46.071Z,35.80
2018-08-04T14:20:14.146Z,35.80
2018-08-04T14:22:53.319Z,35.80
2018-08-04T14:25:20.957Z,35.80
2018-08-04T14:30:46.361Z,35.70
2018-08-04T14:33:14.867Z,35.70
2018-08-04T14:35:44.013Z,35.60
2018-08-04T14:38:12.248Z,35.40
2018-08-04T14:40:40.733Z,35.50
2018-08-04T14:43:08.389Z,35.30
2018-08-04T14:45:37.360Z,35.20
2018-08-04T14:48:08.175Z,35.00
2018-08-04T14:50:38.472Z,34.90
2018-08-04T14:53:06.613Z,34.70
2018-08-04T14:55:41.649Z,34.60
2018-08-04T14:58:17.021Z,34.50
2018-08-04T15:00:44.672Z,34.40
2018-08-04T15:03:14.283Z,34.30
2018-08-04T15:05:42.204Z,34.20
2018-08-04T15:08:09.954Z,34.10
2018-08-04T15:10:39.082Z,34.10
2018-08-04T15:13:07.766Z,34.10
2018-08-04T15:15:42.229Z,34.10
2018-08-04T15:18:09.840Z,33.90
2018-08-04T15:20:37.742Z,34.00
2018-08-04T15:23:05.797Z,34.10
2018-08-04T15:25:33.334Z,34.00
2018-08-04T15:28:00.893Z,34.00
2018-08-04T15:30:28.655Z,33.90
2018-08-04T15:32:56.268Z,33.90
2018-08-04T15:35:23.837Z,33.90
2018-08-04T15:37:53.961Z,33.90
2018-08-04T15:40:21.896Z,34.00
2018-08-04T15:42:49.490Z,34.20
2018-08-04T15:45:17.067Z,34.40
2018-08-04T15:47:44.617Z,34.40
2018-08-04T15:50:12.281Z,34.20
2018-08-04T15:52:39.993Z,34.10
2018-08-04T15:55:07.631Z,33.80
2018-08-04T15:57:37.323Z,33.70
2018-08-04T16:00:05.390Z,33.60
2018-08-04T16:02:33.382Z,33.60
2018-08-04T16:07:40.813Z,33.70
2018-08-04T16:10:08.396Z,33.60
2018-08-04T16:12:35.975Z,33.70
2018-08-04T16:15:03.662Z,33.70
2018-08-04T16:17:31.453Z,33.70
2018-08-04T16:19:59.107Z,33.70
2018-08-04T16:22:26.633Z,33.60
2018-08-04T16:24:54.210Z,33.50
2018-08-04T16:27:21.843Z,33.50
2018-08-04T16:29:49.582Z,33.50
2018-08-04T16:32:17.149Z,33.60
2018-08-04T16:34:51.301Z,33.50
2018-08-04T16:37:19.874Z,33.50
2018-08-04T16:39:47.528Z,33.40
2018-08-04T16:42:15.069Z,33.40
2018-08-04T16:44:42.669Z,33.30
2018-08-04T16:47:15.787Z,33.30
2018-08-04T16:49:43.377Z,33.30
2018-08-04T16:52:11.001Z,33.20
2018-08-04T16:54:38.537Z,33.10
2018-08-04T16:57:06.122Z,33.00
2018-08-04T16:59:33.714Z,32.90
2018-08-04T17:02:01.307Z,32.90
2018-08-04T17:04:29.741Z,32.90
2018-08-04T17:06:57.322Z,32.80
2018-08-04T17:09:24.930Z,32.80
2018-08-04T17:11:52.559Z,32.80
2018-08-04T17:14:22.193Z,32.70
2018-08-04T17:16:49.905Z,32.70
2018-08-04T17:19:17.683Z,32.70
2018-08-04T17:21:45.358Z,32.50
2018-08-04T17:24:13.346Z,32.40
2018-08-04T17:26:41.100Z,32.40
2018-08-04T17:29:08.890Z,32.30
2018-08-04T17:31:36.703Z,32.20
2018-08-04T17:34:04.475Z,32.10
2018-08-04T17:36:32.113Z,32.20
2018-08-04T17:38:59.754Z,31.90
2018-08-04T17:41:27.335Z,32.00
2018-08-04T17:43:55.974Z,32.00
2018-08-04T17:46:23.625Z,32.10
2018-08-04T17:48:51.198Z,32.10
2018-08-04T17:51:18.873Z,32.10
2018-08-04T17:53:46.405Z,32.10
2018-08-04T17:56:14.066Z,32.10
2018-08-04T17:58:41.685Z,32.10
2018-08-04T18:01:09.282Z,32.00
2018-08-04T18:03:36.854Z,32.00
2018-08-04T18:06:04.545Z,31.90
2018-08-04T18:08:32.203Z,31.80
2018-08-04T18:10:59.802Z,31.70
2018-08-04T18:13:27.300Z,31.70
2018-08-04T18:15:54.918Z,31.60
2018-08-04T18:18:22.614Z,31.50
2018-08-04T18:20:50.171Z,31.40
2018-08-04T18:23:18.051Z,31.20
2018-08-04T18:25:45.633Z,31.30
2018-08-04T18:28:14.190Z,31.20
2018-08-04T18:30:41.777Z,31.20
2018-08-04T18:33:10.696Z,31.20
2018-08-04T18:35:38.432Z,31.10
2018-08-04T18:38:06.215Z,31.00
2018-08-04T18:40:33.894Z,31.00
2018-08-04T18:43:01.469Z,31.10
2018-08-04T18:45:29.059Z,31.00
2018-08-04T18:47:56.791Z,30.90
2018-08-04T18:50:28.983Z,30.90
2018-08-04T18:52:56.638Z,30.80
2018-08-04T18:55:24.293Z,30.80
2018-08-04T18:57:51.834Z,30.70
2018-08-04T19:00:19.580Z,30.70
2018-08-04T19:03:03.610Z,30.70
2018-08-04T19:05:31.123Z,30.70
2018-08-04T19:07:59.818Z,30.50
2018-08-04T19:10:27.450Z,30.40
2018-08-04T19:13:08.601Z,30.40
2018-08-04T19:15:36.304Z,30.30
2018-08-04T19:18:04.014Z,30.30
2018-08-04T19:20:31.652Z,30.20
2018-08-04T19:22:59.784Z,30.20
2018-08-04T19:25:27.480Z,30.20
2018-08-04T19:27:55.095Z,30.20
2018-08-04T19:30:22.695Z,30.20
2018-08-04T19:32:50.481Z,30.20
2018-08-04T19:35:18.232Z,30.20
2018-08-04T19:37:45.867Z,30.20
2018-08-04T19:40:13.441Z,30.10
2018-08-04T19:42:41.279Z,30.10
2018-08-04T19:45:09.110Z,30.00
2018-08-04T19:47:36.731Z,30.00
2018-08-04T19:50:04.336Z,29.90
2018-08-04T19:52:31.935Z,29.80
2018-08-04T19:55:01.420Z,29.80
2018-08-04T19:57:29.197Z,29.70
2018-08-04T19:59:57.767Z,29.70
2018-08-04T20:02:25.355Z,29.70
2018-08-04T20:04:53.065Z,29.70
2018-08-04T20:07:20.593Z,29.70
2018-08-04T20:09:48.242Z,29.70
2018-08-04T20:12:26.012Z,29.60
2018-08-04T20:14:53.929Z,29.60
2018-08-04T20:17:21.786Z,29.70
2018-08-04T20:19:49.661Z,29.70
2018-08-04T20:22:17.958Z,29.70
2018-08-04T20:24:45.880Z,29.70
2018-08-04T20:27:13.803Z,29.60
2018-08-04T20:29:41.813Z,29.70
2018-08-04T20:32:09.811Z,29.60
2018-08-04T20:34:37.846Z,29.60
2018-08-04T20:37:05.676Z,29.60
2018-08-04T20:39:33.489Z,29.50
2018-08-04T20:42:02.315Z,29.50
2018-08-04T20:44:30.089Z,29.50
2018-08-04T20:46:57.923Z,29.50
2018-08-04T20:49:26.594Z,29.50
2018-08-04T20:51:54.388Z,29.40
2018-08-04T20:54:29.082Z,29.40
2018-08-04T20:56:58.130Z,29.40
2018-08-04T20:59:26.084Z,29.40
2018-08-04T21:02:00.081Z,29.30
2018-08-04T21:04:31.163Z,29.20
2018-08-04T21:07:01.326Z,29.20
2018-08-04T21:09:28.923Z,29.10
2018-08-04T21:11:58.644Z,28.90
2018-08-04T21:14:27.096Z,28.90
2018-08-04T21:16:57.606Z,28.80
2018-08-04T21:19:25.729Z,28.70
2018-08-04T21:21:53.354Z,28.40
2018-08-04T22:47:56.282Z,26.20
2018-08-04T23:13:04.444Z,25.50
2018-08-04T23:26:43.615Z,25.00
2018-08-04T23:37:19.140Z,25.00
2018-08-04T23:51:11.291Z,24.60
